KFYV

Drake Field Airport

Fayetteville, Arkansas, USA
METAR KFYV 162153Z 30005KT 10SM CLR 16/03 A3022 RMK AO2 SLP234 T01560033
Observed Flight Rules
Dec-16 @ 21:53 UTC (44 minutes ago) Visual Flight Rules
Wind Visibility Clouds
300° at 5 knots 10 miles
  • Clear skies
Temperatures Readings
Current 16°C / 61°F
Dewpoint 3°C / 37°F
Humidity 42%
Altimeter 30.22" Hg
Pressure 1023.4 hPa
Elevation 379
METAR KFYV 162153Z 30005KT 10SM CLR 16/03 A3022 RMK AO2 SLP234 T01560033
Observed Flight Rules
Dec-16 @ 21:53 UTC
(44 minutes ago)
VFR
Wind Visibility
300° at 5 knots 10 miles
Clouds
  • Clear skies
Temperature Dewpoint
16°C / 61°F 3°C / 37°F
Humidity Altimeter Pressure
42% 30.22" Hg 1023.4 hPa